CA26 weather

Hall of Justice Heliport
San Francisco, California, United States

Public forecast

Using degrees Fahrenheit for public forecast. Weather courtesy of forecast.io.

METAR (pilot weather report)

Closest report is Metropolitan Oakland International Airport, 9.3 nm (17.2 km) ESE. Retrieved 2019/06/19 16:53 UTC (18 minutes ago):

KOAK 191653Z 35006KT 6SM HZ OVC012 18/13 A2997 RMK AO2 SLP148 T01830133

TAF (pilot weather forecast)

Closest forecast is Metropolitan Oakland International Airport, 9.3 nm (17.2 km) ESE. Retrieved 2019/06/19 12:42 UTC (4 hours ago):

TAF KOAK 191139Z 1912/2018 36004KT P6SM OVC010 FM191500 29007KT P6SM OVC010 FM191900 29007KT P6SM FEW010 FM192100 31014KT P6SM SKC FM200400 29011KT P6SM BKN010 FM200800 25013KT P6SM OVC008